Time;durP1;ratioP1;P1;durP2;ratioP2;P2;SDS_P1;SDS_P2;PMS_P1;PMS_P2;Temp;Humidity;BMP_temperature;BMP_pressure;BME280_temperature;BME280_humidity;BME280_pressure;Samples;Min_cycle;Max_cycle;Signal;HPM_P1;HPM_P2
2024/04/06 00:01:19;;;;;;;1.30;1.20;;;;;;;1.60;81.54;100537.78;5002770;28;20529;-77
2024/04/06 00:03:45;;;;;;;2.00;1.50;;;;;;;1.61;81.28;100543.81;5006029;28;20210;-79
2024/04/06 00:06:12;;;;;;;1.37;1.23;;;;;;;1.62;81.23;100542.97;5002655;28;20441;-78
2024/04/06 00:08:38;;;;;;;1.30;1.20;;;;;;;1.62;81.39;100538.69;5003395;28;20704;-78
2024/04/06 00:11:05;;;;;;;1.93;1.20;;;;;;;1.63;81.03;100545.56;5004077;28;20454;-79
2024/04/06 00:13:31;;;;;;;1.70;1.40;;;;;;;1.64;81.00;100544.69;5003899;28;20444;-78
2024/04/06 00:15:58;;;;;;;3.00;1.50;;;;;;;1.63;81.10;100542.97;5004347;28;20461;-78
2024/04/06 00:18:25;;;;;;;1.93;1.10;;;;;;;1.48;81.39;100523.06;5002821;28;20238;-78
2024/04/06 00:20:52;;;;;;;1.60;1.50;;;;;;;1.63;80.96;100547.28;5005251;28;20969;-78
2024/04/06 00:23:18;;;;;;;1.50;0.97;;;;;;;1.65;81.36;100561.06;5002138;28;20953;-78
2024/04/06 00:25:44;;;;;;;1.87;1.53;;;;;;;1.63;81.10;100552.44;5005667;28;20441;-78
2024/04/06 00:28:10;;;;;;;2.43;1.50;;;;;;;1.67;81.15;100561.91;5002342;28;20238;-78
2024/04/06 00:30:37;;;;;;;1.10;1.00;;;;;;;1.69;81.26;100557.66;5004701;28;20450;-77
2024/04/06 00:33:03;;;;;;;1.30;1.20;;;;;;;1.55;80.92;100528.28;5001808;28;20737;-78
2024/04/06 00:35:32;;;;;;;2.30;1.37;;;;;;;1.70;80.86;100554.22;5003860;28;20540;-78
2024/04/06 00:37:58;;;;;;;1.87;1.37;;;;;;;1.71;80.96;100545.66;5002753;28;20458;-79
2024/04/06 00:40:24;;;;;;;1.80;1.57;;;;;;;1.73;81.01;100554.22;5004917;28;20455;-77
2024/04/06 00:42:51;;;;;;;1.63;1.20;;;;;;;1.73;81.01;100551.66;5001698;28;20210;-78
2024/04/06 00:45:18;;;;;;;1.63;1.37;;;;;;;1.73;80.71;100554.22;5005448;28;20456;-78
2024/04/06 00:47:43;;;;;;;1.50;1.40;;;;;;;1.73;80.89;100554.22;5001896;28;20985;-77
2024/04/06 00:50:11;;;;;;;1.50;1.30;;;;;;;1.66;81.14;100547.31;5005149;28;20472;-78
2024/04/06 00:52:39;;;;;;;2.07;1.20;;;;;;;1.74;80.89;100561.16;5004025;28;20202;-78
2024/04/06 00:55:07;;;;;;;1.20;1.10;;;;;;;1.72;81.27;100560.25;5003126;28;20564;-79
2024/04/06 00:57:33;;;;;;;1.20;1.10;;;;;;;1.75;81.06;100557.72;5004234;28;20475;-78
2024/04/06 01:00:01;;;;;;;1.67;1.33;;;;;;;1.77;81.04;100566.34;5002195;28;20520;-78
2024/04/06 01:02:27;;;;;;;1.40;1.10;;;;;;;1.78;81.00;100573.22;5005107;28;20444;-79
2024/04/06 01:04:54;;;;;;;1.23;1.10;;;;;;;1.79;81.00;100559.47;5001908;28;20458;-77
2024/04/06 01:07:20;;;;;;;1.27;1.00;;;;;;;1.78;81.15;100557.72;5004266;28;20703;-76
2024/04/06 01:09:48;;;;;;;2.27;1.57;;;;;;;1.81;81.07;100557.75;5002470;28;20441;-77
2024/04/06 01:12:14;;;;;;;1.50;1.07;;;;;;;1.79;80.78;100554.31;5000972;28;20453;-77
2024/04/06 01:14:41;;;;;;;1.80;1.10;;;;;;;1.80;80.97;100558.63;5004999;28;21009;-77
2024/04/06 01:17:08;;;;;;;1.23;1.10;;;;;;;1.81;80.73;100562.91;5005042;28;20209;-77
2024/04/06 01:19:35;;;;;;;1.00;0.90;;;;;;;1.82;80.88;100562.09;5005327;28;20552;-78
2024/04/06 01:22:01;;;;;;;1.70;1.30;;;;;;;1.79;80.86;100567.22;5001326;28;20454;-76
2024/04/06 01:24:29;;;;;;;1.00;1.00;;;;;;;1.83;81.04;100573.28;5004682;28;20447;-77
2024/04/06 01:26:56;;;;;;;1.13;1.00;;;;;;;1.82;80.73;100569.81;5002465;28;20210;-78
2024/04/06 01:29:26;;;;;;;1.27;1.03;;;;;;;1.82;81.21;100564.66;5003346;28;20449;-78
2024/04/06 01:31:52;;;;;;;1.40;1.13;;;;;;;1.86;80.78;100570.72;5003736;28;20450;-77
2024/04/06 01:34:19;;;;;;;0.70;0.70;;;;;;;1.86;80.69;100573.28;5002083;28;20787;-79
2024/04/06 01:36:45;;;;;;;1.10;1.00;;;;;;;1.84;81.02;100578.44;5004280;28;20205;-78
2024/04/06 01:39:12;;;;;;;1.30;1.00;;;;;;;1.89;80.87;100575.91;5000776;28;20513;-78
2024/04/06 01:41:41;;;;;;;1.17;1.07;;;;;;;1.85;80.77;100575.00;5004173;28;20622;-77
2024/04/06 01:44:08;;;;;;;1.00;0.90;;;;;;;1.88;80.86;100581.94;5002086;28;20485;-79
2024/04/06 01:46:34;;;;;;;1.00;0.90;;;;;;;1.87;80.68;100578.44;5002612;28;20461;-79
2024/04/06 01:49:01;;;;;;;1.10;1.00;;;;;;;1.91;80.88;100582.81;5002735;28;20484;-79
2024/04/06 01:51:27;;;;;;;0.90;0.90;;;;;;;1.91;80.80;100585.38;5001383;28;20242;-79
2024/04/06 01:53:54;;;;;;;1.23;1.00;;;;;;;1.91;80.94;100579.38;5003630;28;20468;-78
2024/04/06 01:56:20;;;;;;;0.60;0.60;;;;;;;1.90;81.08;100586.25;5000607;28;20238;-78
2024/04/06 01:58:48;;;;;;;1.13;1.03;;;;;;;1.91;80.94;100587.09;5000442;28;20811;-80
2024/04/06 02:01:14;;;;;;;0.80;0.80;;;;;;;1.87;80.67;100575.88;5003455;28;20669;-79
2024/04/06 02:03:42;;;;;;;1.63;0.90;;;;;;;1.85;80.91;100579.31;5001646;28;20450;-79
2024/04/06 02:06:08;;;;;;;1.07;0.97;;;;;;;1.87;80.67;100573.28;5002246;28;20432;-78
2024/04/06 02:08:35;;;;;;;0.90;0.90;;;;;;;1.88;80.72;100584.50;4998815;28;20484;-79
2024/04/06 02:11:02;;;;;;;1.10;0.80;;;;;;;1.88;80.56;100580.19;5001160;28;21001;-78
2024/04/06 02:13:29;;;;;;;1.63;1.10;;;;;;;1.88;80.85;100590.53;5003971;28;20861;-78
2024/04/06 02:15:56;;;;;;;1.00;0.90;;;;;;;1.88;81.02;100584.50;5002040;28;20464;-80
2024/04/06 02:18:23;;;;;;;1.03;0.93;;;;;;;1.90;80.96;100588.84;5004261;28;20456;-79
2024/04/06 02:20:49;;;;;;;1.03;0.93;;;;;;;1.90;80.68;100588.84;5001753;28;20455;-78
2024/04/06 02:23:16;;;;;;;1.43;0.90;;;;;;;1.83;80.81;100581.00;5003664;28;20454;-80
2024/04/06 02:25:42;;;;;;;1.23;1.13;;;;;;;1.92;80.96;100597.44;5006808;28;20296;-78
2024/04/06 02:28:09;;;;;;;1.10;1.00;;;;;;;1.81;80.70;100573.25;5006026;28;21051;-79
2024/04/06 02:30:37;;;;;;;1.67;1.40;;;;;;;1.91;80.82;100580.22;5007305;28;20203;-78
2024/04/06 02:33:05;;;;;;;1.20;1.10;;;;;;;1.82;80.75;100575.00;5004898;28;20454;-78
2024/04/06 02:35:31;;;;;;;1.20;1.10;;;;;;;1.90;80.62;100580.19;5008098;28;20445;-79
2024/04/06 02:37:58;;;;;;;1.10;1.00;;;;;;;1.87;80.55;100578.44;5005134;28;20841;-79
2024/04/06 02:40:24;;;;;;;0.80;0.80;;;;;;;1.88;80.65;100576.75;5008120;28;20201;-80
2024/04/06 02:42:51;;;;;;;1.07;0.97;;;;;;;1.89;80.71;100576.75;5007313;28;20458;-78
2024/04/06 02:45:17;;;;;;;0.70;0.70;;;;;;;1.88;80.73;100579.34;5009580;28;20655;-79
2024/04/06 02:47:44;;;;;;;0.70;0.70;;;;;;;1.87;80.61;100572.44;5006812;28;20536;-79
2024/04/06 02:50:12;;;;;;;0.70;0.70;;;;;;;1.84;80.81;100578.44;5008579;28;20209;-80
2024/04/06 02:52:38;;;;;;;0.70;0.70;;;;;;;1.75;80.59;100568.03;5006194;28;20808;-78
2024/04/06 02:55:05;;;;;;;0.70;0.70;;;;;;;1.74;80.73;100571.47;5009426;28;20486;-79
2024/04/06 02:57:32;;;;;;;0.50;0.50;;;;;;;1.79;80.85;100574.97;5006383;28;20491;-79
2024/04/06 02:59:58;;;;;;;0.80;0.80;;;;;;;1.79;80.54;100582.69;5008789;28;20453;-78
2024/04/06 03:02:25;;;;;;;0.70;0.70;;;;;;;1.78;80.76;100582.66;5006359;28;20468;-79
2024/04/06 03:04:51;;;;;;;0.80;0.70;;;;;;;1.77;80.97;100579.22;5004680;28;20205;-82
2024/04/06 03:07:19;;;;;;;0.70;0.70;;;;;;;1.75;80.94;100578.34;5006664;28;20454;-80
2024/04/06 03:09:46;;;;;;;0.83;0.83;;;;;;;1.76;81.08;100579.19;5008383;28;20214;-81
2024/04/06 03:12:13;;;;;;;0.70;0.70;;;;;;;1.74;80.64;100575.75;5005649;28;20481;-80
2024/04/06 03:14:40;;;;;;;1.10;0.90;;;;;;;1.73;80.91;100569.72;5009705;28;20452;-81
2024/04/06 03:17:07;;;;;;;0.60;0.60;;;;;;;1.65;81.04;100566.22;5008909;28;20444;-80
2024/04/06 03:19:32;;;;;;;0.80;0.80;;;;;;;1.74;80.87;100580.91;5005576;28;20504;-79
2024/04/06 03:21:59;;;;;;;0.70;0.70;;;;;;;1.70;80.99;100580.00;5004501;28;20452;-86
2024/04/06 03:24:27;;;;;;;0.40;0.40;;;;;;;1.69;81.06;100578.28;5006490;28;20216;-87
2024/04/06 03:26:53;;;;;;;0.63;0.57;;;;;;;1.75;80.96;100592.97;5008438;28;20557;-85
2024/04/06 03:29:19;;;;;;;0.60;0.60;;;;;;;1.74;81.24;100594.69;5005160;28;20496;-85
2024/04/06 03:31:46;;;;;;;0.53;0.53;;;;;;;1.76;80.98;100599.84;5007956;28;20448;-86
2024/04/06 03:34:12;;;;;;;0.80;0.80;;;;;;;1.75;81.17;100596.41;5008289;28;20455;-84
2024/04/06 03:36:39;;;;;;;0.87;0.83;;;;;;;1.78;81.33;100614.47;5006928;28;20452;-88
2024/04/06 03:39:07;;;;;;;1.10;1.00;;;;;;;1.80;81.02;100617.94;5004332;28;20209;-85
2024/04/06 03:41:36;;;;;;;1.07;0.97;;;;;;;1.81;80.84;100619.66;5002362;28;20449;-87
2024/04/06 03:44:04;;;;;;;0.83;0.73;;;;;;;1.79;81.42;100616.22;5004531;28;20454;-88
2024/04/06 03:46:30;;;;;;;0.63;0.60;;;;;;;1.82;80.99;100616.25;5004823;28;20446;-86
2024/04/06 03:48:57;;;;;;;0.87;0.87;;;;;;;1.82;80.85;100621.41;5007447;28;20486;-86
2024/04/06 03:51:23;;;;;;;0.87;0.87;;;;;;;1.83;81.03;100612.81;5004129;28;20213;-85
2024/04/06 03:53:51;;;;;;;0.70;0.70;;;;;;;1.78;80.86;100603.31;5007755;28;20460;-85
2024/04/06 03:56:17;;;;;;;0.90;0.90;;;;;;;1.85;81.33;100625.75;5006342;28;20486;-84
2024/04/06 03:58:45;;;;;;;0.70;0.70;;;;;;;1.75;81.08;100609.28;5005504;28;20482;-84
2024/04/06 04:01:11;;;;;;;0.83;0.83;;;;;;;1.84;81.02;100642.91;5005338;28;20487;-85
2024/04/06 04:03:39;;;;;;;0.97;0.80;;;;;;;1.85;80.81;100636.06;5005243;28;20464;-77
2024/04/06 04:06:06;;;;;;;0.80;0.80;;;;;;;1.69;80.98;100612.66;5002155;28;20205;-76
2024/04/06 04:08:33;;;;;;;0.70;0.70;;;;;;;1.87;80.92;100640.38;5002438;28;21028;-77
2024/04/06 04:10:59;;;;;;;0.63;0.63;;;;;;;1.88;81.19;100646.41;5002429;28;20453;-75
2024/04/06 04:13:26;;;;;;;0.53;0.53;;;;;;;1.87;81.03;100645.53;5004880;28;20449;-78
2024/04/06 04:15:54;;;;;;;0.50;0.50;;;;;;;1.87;80.98;100645.53;5003290;28;20439;-78
2024/04/06 04:18:22;;;;;;;0.70;0.70;;;;;;;1.87;80.94;100645.53;5003998;28;20479;-78
2024/04/06 04:20:47;;;;;;;0.57;0.57;;;;;;;1.86;80.66;100646.38;5005651;28;20456;-77
2024/04/06 04:23:14;;;;;;;0.67;0.67;;;;;;;1.86;81.17;100635.22;5003545;28;20454;-79
2024/04/06 04:25:40;;;;;;;0.60;0.60;;;;;;;1.86;80.90;100640.38;5005345;28;20216;-80
2024/04/06 04:28:07;;;;;;;0.60;0.60;;;;;;;1.83;80.84;100643.78;5006131;28;20481;-77
2024/04/06 04:30:33;;;;;;;0.70;0.70;;;;;;;1.86;80.99;100651.56;5002499;28;20207;-79
2024/04/06 04:33:01;;;;;;;0.70;0.70;;;;;;;1.85;81.06;100652.41;5005584;28;20455;-77
2024/04/06 04:35:27;;;;;;;0.93;0.90;;;;;;;1.87;81.03;100655.00;5002924;28;20211;-77
2024/04/06 04:37:54;;;;;;;0.73;0.73;;;;;;;1.88;81.01;100665.34;5003388;28;20460;-78
2024/04/06 04:40:20;;;;;;;0.50;0.50;;;;;;;1.87;80.97;100666.16;5003639;28;20212;-78
2024/04/06 04:42:47;;;;;;;0.60;0.60;;;;;;;1.87;81.09;100666.16;5002479;28;20546;-78
2024/04/06 04:45:14;;;;;;;0.60;0.50;;;;;;;1.87;80.78;100670.47;5004530;28;20208;-77
2024/04/06 04:47:41;;;;;;;0.80;0.80;;;;;;;1.87;80.77;100680.78;5000189;28;20950;-78
2024/04/06 04:50:09;;;;;;;1.10;0.87;;;;;;;1.87;80.71;100676.47;5004428;28;21076;-75
2024/04/06 04:52:36;;;;;;;0.70;0.60;;;;;;;1.87;81.01;100666.16;5002211;28;20453;-76
2024/04/06 04:55:03;;;;;;;0.60;0.60;;;;;;;1.85;80.96;100673.03;5003338;28;20444;-77
2024/04/06 04:57:30;;;;;;;0.50;0.50;;;;;;;1.86;80.93;100679.94;5003220;28;20498;-78
2024/04/06 04:59:57;;;;;;;0.80;0.80;;;;;;;1.86;81.02;100690.25;5003435;28;20438;-75
2024/04/06 05:02:24;;;;;;;0.70;0.70;;;;;;;1.84;81.15;100701.38;5005604;28;20972;-76
2024/04/06 05:04:50;;;;;;;0.50;0.50;;;;;;;1.87;81.07;100715.19;5002057;28;20445;-77
2024/04/06 05:07:19;;;;;;;0.70;0.70;;;;;;;1.82;80.80;100711.72;5004401;28;20452;-77
2024/04/06 05:09:57;;;;;;;0.50;0.50;;;;;;;1.89;81.15;100716.06;5143046;27;20601;-70
2024/04/06 05:12:23;;;;;;;0.63;0.63;;;;;;;1.89;80.96;100721.25;5127253;28;20937;-71
2024/04/06 05:14:49;;;;;;;0.63;0.63;;;;;;;1.89;80.91;100715.22;5130585;28;20449;-71
2024/04/06 05:17:16;;;;;;;0.50;0.50;;;;;;;1.88;80.95;100718.66;5130626;28;20201;-71
2024/04/06 05:19:42;;;;;;;0.77;0.70;;;;;;;1.87;80.99;100720.34;5130818;28;20483;-70
2024/04/06 05:22:08;;;;;;;0.73;0.70;;;;;;;1.88;80.78;100723.81;5130456;28;20433;-71
2024/04/06 05:24:35;;;;;;;0.73;0.73;;;;;;;1.87;80.75;100735.81;5130402;28;20880;-71
2024/04/06 05:27:03;;;;;;;0.83;0.70;;;;;;;1.85;81.21;100734.09;5130594;28;20198;-70
2024/04/06 05:29:30;;;;;;;0.60;0.60;;;;;;;1.75;80.91;100730.53;5129410;28;20466;-71
2024/04/06 05:31:57;;;;;;;0.70;0.70;;;;;;;1.84;81.17;100743.53;5130435;28;20515;-70
2024/04/06 05:34:24;;;;;;;0.63;0.63;;;;;;;1.82;81.02;100750.41;5130497;28;20453;-70
2024/04/06 05:36:50;;;;;;;0.80;0.80;;;;;;;1.84;80.96;100766.75;5130237;28;20435;-70
2024/04/06 05:39:17;;;;;;;0.60;0.60;;;;;;;1.84;81.02;100776.19;5130312;28;20442;-70
2024/04/06 05:41:43;;;;;;;0.70;0.70;;;;;;;1.85;81.15;100785.69;5130215;28;20436;-70
2024/04/06 05:44:11;;;;;;;0.87;0.83;;;;;;;1.85;81.18;100790.84;5130083;28;20446;-71
2024/04/06 05:46:37;;;;;;;0.70;0.60;;;;;;;1.86;81.07;100792.59;5130013;28;20197;-71
2024/04/06 05:49:05;;;;;;;0.53;0.53;;;;;;;1.87;81.20;100792.59;5129914;28;20489;-70
2024/04/06 05:51:31;;;;;;;0.70;0.70;;;;;;;1.86;80.78;100783.13;5126126;28;20209;-71
2024/04/06 05:53:58;;;;;;;0.63;0.63;;;;;;;1.89;81.09;100790.91;5130052;28;20468;-71
2024/04/06 05:56:24;;;;;;;0.50;0.50;;;;;;;1.89;81.05;100788.31;5126193;28;20482;-71
2024/04/06 05:58:51;;;;;;;0.60;0.60;;;;;;;1.90;80.92;100790.06;5129832;28;20493;-71
2024/04/06 06:01:19;;;;;;;0.60;0.60;;;;;;;1.90;80.82;100791.75;5129737;28;20205;-70
2024/04/06 06:03:46;;;;;;;0.50;0.50;;;;;;;1.90;80.97;100790.06;5129560;28;20532;-71
2024/04/06 06:06:12;;;;;;;0.70;0.70;;;;;;;1.88;81.00;100796.91;5129765;28;20450;-70
2024/04/06 06:08:39;;;;;;;0.70;0.70;;;;;;;1.87;80.65;100805.47;5129352;28;20482;-71
2024/04/06 06:11:05;;;;;;;0.70;0.70;;;;;;;1.88;80.80;100816.69;5129695;28;20200;-71
2024/04/06 06:13:32;;;;;;;0.80;0.80;;;;;;;1.86;81.12;100814.09;5127646;28;20827;-71
2024/04/06 06:15:59;;;;;;;0.70;0.70;;;;;;;1.87;80.96;100820.97;5129598;28;20227;-71
2024/04/06 06:18:27;;;;;;;0.67;0.67;;;;;;;1.87;81.02;100820.97;5129907;28;20567;-70
2024/04/06 06:20:53;;;;;;;0.70;0.70;;;;;;;1.89;81.30;100824.44;5116502;28;20516;-71
2024/04/06 06:23:20;;;;;;;1.10;1.00;;;;;;;1.90;81.17;100828.78;5112718;28;20531;-70
2024/04/06 06:25:47;;;;;;;0.70;0.70;;;;;;;1.90;81.03;100830.47;5115726;28;20659;-71
2024/04/06 06:28:14;;;;;;;0.60;0.60;;;;;;;1.90;81.35;100833.94;5115518;28;20483;-70
2024/04/06 06:30:41;;;;;;;1.03;0.97;;;;;;;1.91;81.24;100830.50;5115593;28;20501;-70
2024/04/06 06:33:07;;;;;;;0.80;0.80;;;;;;;1.91;81.39;100838.25;5115639;28;20496;-70
2024/04/06 06:35:35;;;;;;;0.90;0.90;;;;;;;1.91;81.25;100842.53;5115553;28;20499;-71
2024/04/06 06:38:02;;;;;;;0.67;0.67;;;;;;;1.93;81.22;100858.88;5115393;28;20435;-71
2024/04/06 06:40:27;;;;;;;1.10;1.00;;;;;;;1.93;81.50;100867.53;5115723;28;20947;-72
2024/04/06 06:42:54;;;;;;;1.37;1.00;;;;;;;1.94;81.60;100858.06;5115548;28;20431;-72
2024/04/06 06:45:20;;;;;;;1.40;1.10;;;;;;;1.95;81.43;100864.94;5115426;28;20201;-73
2024/04/06 06:47:47;;;;;;;0.80;0.80;;;;;;;1.96;81.49;100868.38;5113299;28;20462;-73
2024/04/06 06:50:14;;;;;;;3.17;1.20;;;;;;;1.99;81.38;100874.47;5115469;28;20197;-81
2024/04/06 06:52:42;;;;;;;1.33;1.10;;;;;;;2.01;81.57;100884.81;5115587;28;20471;-81
2024/04/06 06:55:09;;;;;;;1.07;0.80;;;;;;;2.02;81.59;100895.16;5114117;28;20813;-81
2024/04/06 06:57:36;;;;;;;0.70;0.60;;;;;;;2.02;81.27;100900.31;5114100;28;20537;-81
2024/04/06 07:00:02;;;;;;;1.00;0.90;;;;;;;2.05;81.67;100902.09;5115466;28;20455;-81
2024/04/06 07:02:29;;;;;;;1.00;0.90;;;;;;;2.08;81.36;100922.78;5115071;28;20941;-81
2024/04/06 07:04:55;;;;;;;0.73;0.63;;;;;;;2.09;81.57;100917.63;5115231;28;20436;-81
2024/04/06 07:07:22;;;;;;;1.10;1.00;;;;;;;2.11;81.24;100915.06;5115226;28;20440;-80
2024/04/06 07:09:50;;;;;;;1.50;1.10;;;;;;;2.13;81.30;100918.50;5115463;28;20241;-83
2024/04/06 07:12:16;;;;;;;0.80;0.80;;;;;;;2.12;81.17;100915.06;5115856;28;20443;-83
2024/04/06 07:14:43;;;;;;;1.30;0.93;;;;;;;2.14;81.07;100922.84;5115558;28;20446;-82
2024/04/06 07:17:08;;;;;;;1.10;1.00;;;;;;;2.12;81.24;100924.53;5116442;28;20207;-83
2024/04/06 07:19:35;;;;;;;1.20;1.10;;;;;;;2.12;81.27;100924.53;5115411;28;20496;-82
2024/04/06 07:22:02;;;;;;;1.20;1.10;;;;;;;2.10;81.25;100927.13;5115702;28;20225;-82
2024/04/06 07:24:29;;;;;;;0.60;0.50;;;;;;;2.12;81.32;100934.84;5115060;28;20453;-80
2024/04/06 07:26:56;;;;;;;1.17;0.70;;;;;;;2.11;81.29;100939.16;5115087;28;20441;-80
2024/04/06 07:29:23;;;;;;;1.97;0.87;;;;;;;2.12;81.20;100961.53;5115165;28;20468;-81
2024/04/06 07:31:49;;;;;;;1.20;1.10;;;;;;;2.11;81.45;100959.81;5114114;28;20803;-81
2024/04/06 07:34:17;;;;;;;1.00;0.90;;;;;;;2.13;81.19;100960.72;5115214;28;20537;-82
2024/04/06 07:36:43;;;;;;;0.53;0.53;;;;;;;2.11;81.17;100958.94;5114958;28;20529;-81
2024/04/06 07:39:11;;;;;;;0.80;0.40;;;;;;;2.12;81.20;100966.69;5114739;28;20529;-81
2024/04/06 07:41:37;;;;;;;1.60;0.90;;;;;;;2.10;81.26;100971.00;5114967;28;20297;-82
2024/04/06 07:44:05;;;;;;;0.73;0.60;;;;;;;2.16;81.08;100980.53;5114868;28;20474;-82
2024/04/06 07:46:33;;;;;;;1.10;1.00;;;;;;;2.15;80.95;100986.53;5114760;28;20204;-81
2024/04/06 07:48:58;;;;;;;3.43;1.10;;;;;;;2.14;81.03;100982.22;5114354;28;20563;-73
2024/04/06 07:51:25;;;;;;;0.53;0.53;;;;;;;2.14;81.11;100984.81;5113636;28;20536;-73
2024/04/06 07:53:51;;;;;;;1.27;1.00;;;;;;;2.17;81.04;100991.72;5113656;28;20663;-73
2024/04/06 07:56:18;;;;;;;1.20;1.00;;;;;;;2.17;81.17;100992.59;5113274;28;20467;-73
2024/04/06 07:58:44;;;;;;;1.20;0.87;;;;;;;2.18;80.88;101001.19;5109919;28;20207;-73
2024/04/06 08:01:12;;;;;;;1.70;1.33;;;;;;;2.15;80.93;100992.56;5111446;28;20436;-73
2024/04/06 08:03:38;;;;;;;2.20;1.37;;;;;;;2.21;81.08;101003.81;5114008;28;20290;-73
2024/04/06 08:06:06;;;;;;;1.23;1.00;;;;;;;2.22;80.92;101006.44;5113742;28;20525;-73
2024/04/06 08:08:34;;;;;;;1.10;1.00;;;;;;;2.23;81.18;101008.16;5113484;28;20227;-75
2024/04/06 08:11:01;;;;;;;1.10;1.00;;;;;;;2.24;80.99;101009.03;5113242;28;20443;-71
2024/04/06 08:13:27;;;;;;;2.23;1.20;;;;;;;2.25;81.03;101021.13;5111006;28;20439;-70
2024/04/06 08:15:54;;;;;;;1.67;0.90;;;;;;;2.22;81.02;101013.31;5113574;28;20828;-71
2024/04/06 08:18:21;;;;;;;2.40;1.20;;;;;;;2.24;81.05;101022.81;5113362;28;20682;-71
2024/04/06 08:20:48;;;;;;;1.87;1.27;;;;;;;2.26;81.13;101021.13;5112282;28;20449;-70
2024/04/06 08:23:17;;;;;;;1.37;0.87;;;;;;;2.26;81.21;101028.88;5113591;28;20471;-71
2024/04/06 08:25:44;;;;;;;3.00;1.20;;;;;;;2.28;81.26;101034.06;5113426;28;20532;-70
2024/04/06 08:28:10;;;;;;;3.60;1.53;;;;;;;2.29;80.99;101030.63;5113140;28;20959;-71
2024/04/06 08:30:36;;;;;;;1.37;1.27;;;;;;;2.31;81.14;101037.56;5093742;28;20476;-71
2024/04/06 08:33:03;;;;;;;2.50;1.30;;;;;;;2.33;81.08;101042.72;5054704;28;20541;-71
2024/04/06 08:35:31;;;;;;;1.30;1.20;;;;;;;2.33;80.98;101037.56;5053103;28;20444;-71
2024/04/06 08:37:57;;;;;;;1.30;1.10;;;;;;;2.35;80.95;101047.06;5055359;28;20479;-71
2024/04/06 08:40:24;;;;;;;1.80;1.40;;;;;;;2.35;81.34;101047.06;5057134;28;20527;-71
2024/04/06 08:42:50;;;;;;;2.30;1.13;;;;;;;2.36;80.94;101037.63;5058903;28;20291;-71
2024/04/06 08:45:20;;;;;;;1.33;1.10;;;;;;;2.37;81.01;101045.38;5062240;28;20942;-70
2024/04/06 08:47:47;;;;;;;2.00;1.47;;;;;;;2.38;80.93;101051.41;5063604;28;20458;-71
2024/04/06 08:50:13;;;;;;;2.17;1.50;;;;;;;2.39;81.02;101058.34;5062069;28;21070;-71
2024/04/06 08:52:41;;;;;;;1.40;1.30;;;;;;;2.44;80.92;101058.38;5056021;28;20493;-71
2024/04/06 08:55:08;;;;;;;1.77;1.27;;;;;;;2.45;80.76;101060.16;5054003;28;20456;-71
2024/04/06 08:57:37;;;;;;;2.70;1.30;;;;;;;2.46;81.01;101059.28;5053204;28;20478;-71
2024/04/06 09:00:06;;;;;;;2.10;1.40;;;;;;;2.49;80.95;101072.25;5055196;28;20875;-71
2024/04/06 09:02:33;;;;;;;1.87;1.50;;;;;;;2.50;80.98;101072.28;5057631;28;20527;-71
2024/04/06 09:05:00;;;;;;;2.10;1.63;;;;;;;2.52;81.10;101077.47;5060331;28;20842;-71
2024/04/06 09:07:25;;;;;;;2.70;1.90;;;;;;;2.54;80.86;101073.19;5061769;28;20939;-71
2024/04/06 09:09:55;;;;;;;3.17;1.53;;;;;;;2.56;80.76;101084.44;5064482;28;20487;-81
2024/04/06 09:12:22;;;;;;;2.50;1.70;;;;;;;2.57;80.67;101091.31;5067477;28;20284;-81
2024/04/06 09:14:48;;;;;;;2.10;1.80;;;;;;;2.58;80.63;101101.66;5069036;28;20451;-80
2024/04/06 09:17:16;;;;;;;2.30;1.53;;;;;;;2.60;80.81;101114.59;5063983;28;20443;-80
2024/04/06 09:19:42;;;;;;;1.60;1.50;;;;;;;2.60;80.90;101114.59;5053620;28;20481;-73
2024/04/06 09:22:09;;;;;;;2.37;1.93;;;;;;;2.65;80.71;101123.31;5055564;28;20473;-74
2024/04/06 09:24:36;;;;;;;3.43;1.90;;;;;;;2.67;80.71;101120.72;5058287;28;20197;-74
2024/04/06 09:27:12;;;;;;;2.87;1.90;;;;;;;2.69;80.63;101111.28;5059815;28;20949;-73
2024/04/06 09:29:39;;;;;;;1.80;1.60;;;;;;;2.68;80.50;101113.03;5064067;28;20477;-71
2024/04/06 09:32:10;;;;;;;2.10;1.63;;;;;;;2.70;80.51;101113.91;5063339;28;20943;-71
2024/04/06 09:34:42;;;;;;;2.53;1.57;;;;;;;2.71;80.26;101113.06;5066386;28;20483;-71
2024/04/06 09:37:12;;;;;;;1.60;1.50;;;;;;;2.70;80.02;101116.50;5069548;28;20441;-71
2024/04/06 09:39:39;;;;;;;2.57;1.73;;;;;;;2.71;80.47;101123.41;5068248;28;20509;-71
2024/04/06 09:42:07;;;;;;;3.63;1.60;;;;;;;2.73;80.21;101133.72;5069815;28;20539;-70
2024/04/06 09:44:35;;;;;;;2.33;1.70;;;;;;;2.65;80.16;101118.13;5057343;28;20824;-70
2024/04/06 09:47:03;;;;;;;2.23;1.80;;;;;;;2.74;80.53;101138.94;5058467;28;20443;-70
2024/04/06 09:49:31;;;;;;;1.40;1.30;;;;;;;2.74;80.29;101149.28;5060567;28;20479;-71
2024/04/06 09:51:59;;;;;;;2.27;1.73;;;;;;;2.73;80.14;101157.88;5063832;28;20884;-71
2024/04/06 09:54:25;;;;;;;1.97;1.50;;;;;;;2.76;80.26;101175.16;5065718;28;20443;-70
2024/04/06 09:56:52;;;;;;;2.20;1.50;;;;;;;2.76;80.31;101183.78;5071246;28;20821;-71
2024/04/06 09:59:22;;;;;;;1.87;1.40;;;;;;;2.76;80.22;101183.78;5073953;28;20221;-71
2024/04/06 10:01:53;;;;;;;1.70;1.60;;;;;;;2.79;80.00;101183.81;5074954;28;20453;-71
2024/04/06 10:04:23;;;;;;;2.80;1.60;;;;;;;2.77;80.01;101179.47;5061404;28;20455;-71
2024/04/06 10:06:52;;;;;;;2.03;1.37;;;;;;;2.82;79.85;101196.78;5060378;28;20824;-71
2024/04/06 10:09:18;;;;;;;2.83;1.50;;;;;;;2.83;79.85;101201.09;5068295;28;20632;-71
2024/04/06 10:11:45;;;;;;;1.83;1.57;;;;;;;2.85;79.79;101188.22;5065869;28;20501;-69
2024/04/06 10:14:11;;;;;;;1.43;1.33;;;;;;;2.86;79.85;101186.50;5065175;28;20444;-70
2024/04/06 10:16:39;;;;;;;1.20;1.10;;;;;;;2.88;79.74;101192.56;5069887;28;20826;-70
2024/04/06 10:19:07;;;;;;;1.50;1.40;;;;;;;2.85;79.38;101190.78;5072255;28;20276;-80
2024/04/06 10:21:36;;;;;;;0.90;0.90;;;;;;;2.83;79.17;101184.72;5060719;28;20444;-81
2024/04/06 10:24:09;;;;;;;1.20;1.10;;;;;;;2.81;79.23;101182.13;5057182;28;20497;-81
2024/04/06 10:26:36;;;;;;;1.17;1.00;;;;;;;2.80;79.36;101195.00;5059717;28;20445;-80
2024/04/06 10:29:02;;;;;;;1.00;0.90;;;;;;;2.80;79.19;101200.19;5061077;28;20576;-80
2024/04/06 10:31:29;;;;;;;1.10;1.00;;;;;;;2.81;78.76;101194.16;5065181;28;20443;-80
2024/04/06 10:33:56;;;;;;;1.43;1.00;;;;;;;2.81;78.84;101202.81;5066510;28;20827;-80
2024/04/06 10:36:24;;;;;;;1.13;0.93;;;;;;;2.80;78.53;101213.97;5068148;28;20949;-80
2024/04/06 10:38:50;;;;;;;1.07;0.90;;;;;;;2.80;78.57;101215.69;5062291;28;20450;-70
2024/04/06 10:41:17;;;;;;;1.23;0.70;;;;;;;2.82;78.45;101220.03;5057312;28;20441;-70
2024/04/06 10:43:43;;;;;;;0.70;0.70;;;;;;;2.83;78.60;101226.94;5055358;28;20200;-70
2024/04/06 10:46:11;;;;;;;1.10;1.00;;;;;;;2.86;78.66;101231.28;5056835;28;20454;-70
2024/04/06 10:48:38;;;;;;;1.00;0.83;;;;;;;2.88;78.35;101231.31;5067828;28;20204;-70
2024/04/06 10:51:06;;;;;;;1.00;0.77;;;;;;;2.90;78.27;101237.38;5068619;28;20472;-70
2024/04/06 10:53:34;;;;;;;1.03;0.77;;;;;;;2.91;78.43;101242.56;5064745;28;20444;-70
2024/04/06 10:56:00;;;;;;;1.10;0.80;;;;;;;2.94;78.40;101254.69;5065755;28;20460;-70
2024/04/06 10:58:26;;;;;;;0.93;0.93;;;;;;;2.94;78.02;101265.88;5067629;28;20800;-70
2024/04/06 11:00:53;;;;;;;1.10;0.90;;;;;;;2.94;78.03;101263.31;5070304;28;20439;-70
2024/04/06 11:03:21;;;;;;;2.50;1.20;;;;;;;2.94;78.05;101262.44;5072510;28;20289;-70
2024/04/06 11:05:48;;;;;;;2.17;1.20;;;;;;;2.95;78.01;101259.00;5073438;28;20446;-70
2024/04/06 11:08:14;;;;;;;1.00;1.00;;;;;;;2.95;78.08;101265.03;5071659;28;20471;-70
2024/04/06 11:10:42;;;;;;;1.40;1.30;;;;;;;2.98;78.21;101279.72;5069692;28;20486;-70
2024/04/06 11:13:08;;;;;;;1.23;1.13;;;;;;;2.99;78.00;101279.75;5066523;28;20226;-70
2024/04/06 11:15:35;;;;;;;1.30;1.20;;;;;;;2.97;78.09;101281.44;5064569;28;20928;-70
2024/04/06 11:18:02;;;;;;;2.17;1.20;;;;;;;3.00;78.18;101280.63;5062905;28;20201;-70
2024/04/06 11:20:32;;;;;;;1.90;1.30;;;;;;;3.02;78.27;101289.28;5061134;28;20518;-70
2024/04/06 11:22:58;;;;;;;1.60;1.20;;;;;;;3.04;78.53;101292.75;5057694;28;20497;-70
2024/04/06 11:25:26;;;;;;;2.10;1.47;;;;;;;3.07;78.42;101292.81;5055704;28;20852;-70
2024/04/06 11:27:53;;;;;;;1.97;1.40;;;;;;;3.10;78.38;101303.22;5054774;28;20196;-71
2024/04/06 11:30:22;;;;;;;1.20;1.10;;;;;;;3.04;78.33;101291.06;5056618;28;20899;-75
2024/04/06 11:32:50;;;;;;;2.53;1.20;;;;;;;3.11;77.99;101302.34;5062238;28;20448;-75